航空気象通報

ウインドサーファーのための航空気象通報による風予報です。

3/6-3/8の航空気象通報

2017年03月06日 23時31分25秒 | TAF
羽田空港
TAF RJTT 061105Z 0612/0718 34016KT 9999 FEW030
TEMPO 0615/0618 34025G35KT
BECMG 0700/0703 18010KT
BECMG 0706/0709 30012KT
日本時間6日21時-7日09時:340度から16ノットの風
但し、7日00-03時の間:ときどき340度から25ノット、突風35ノット
09-12時:風が変化
12-15時:180度から10ノットの風
15-18時:風が変化
18時-8日03時:300度から12ノットの風


静岡空港
TAF RJNS 061106Z 0612/0718 27016KT 9999 FEW030
TEMPO 0700/0709 27026G38KT
日本時間6日21時-8日03時:270度から16ノットの風
但し、7日09-18時の間:ときどき270度から26ノット、突風38ノット


福岡空港
TAF RJFF 061106Z 0612/0718 33010KT 9999 FEW030
TEMPO 0700/0703 3000 SHRA BR
BECMG 0703/0706 27015KT
TEMPO 0703/0706 25015G25KT 3000 SHRA BR
TEMPO 0706/0709 27015G25KT
日本時間6日21時-7日12時:330度から10ノットの風
12-15時:風が変化
15時-8日03時:270度から15ノットの風
但し、7日12-18時の間:ときどき250度から15ノット、突風25ノット

但し、7日09-12時の間:ときどき
但し、7日12-15時の間:ときどき

那覇空港
TAF ROAH 061107Z 0612/0718 36016KT 9999 SCT030 BKN045
BECMG 0715/0718 03006KT
日本時間6日21時-7日24時:360度から16ノットの風
8日00-03時:風が変化
03時:030度から6ノットの風


石垣空港
TAF ROIG 061111Z 0612/0718 01012KT 9999 SCT030 BKN045
日本時間6日21時-8日03時:010度から12ノットの風


マウイのカフルイ空港
PHOG 061359Z 0614/0712 VRB05KT P6SM VCSH SCT025 BKN045
TEMPO 0614/0616 5SM -SHRA BR BKN025
FM062000 36009KT P6SM VCSH SCT025 BKN045
FM070500 VRB05KT P6SM VCSH SCT025 BKN045 AMD LTD TO VIS AND WIND TIL 061600
ハワイ時間6日02-10時:風向不定5ノットの風
10-19時:360度から9ノットの風
19時-7日02時:風向不定5ノットの風

但し、6日04-06時の間:ときどき

サイパン空港
TAF PGSN 061132Z 0612/0712 10014KT P6SM VCSH FEW017 SCT040 BKN120
マリアナ時間6日22時-7日22時:100度から14ノットの風

ジャンル:
お天気
コメント   この記事についてブログを書く
この記事をはてなブックマークに追加
« 記事のタイトルを入力してく... | トップ | 3/7-3/9の航空気象通報 »
最近の画像もっと見る

コメントを投稿

ブログ作成者から承認されるまでコメントは反映されません。

TAF」カテゴリの最新記事

トラックバック

この記事のトラックバック  Ping-URL
ブログ作成者から承認されるまでトラックバックは反映されません。
  • 30日以上前の記事に対するトラックバックは受け取らないよう設定されております。
  • 送信元の記事内容が半角英数のみのトラックバックは受け取らないよう設定されております。
  • このブログへのリンクがない記事からのトラックバックは受け取らないよう設定されております。
  • ※ブログ管理者のみ、編集画面で設定の変更が可能です。